createdAt,value
2023-04-13T00:01:19.612Z,12.85
2023-04-13T00:03:47.840Z,13.07
2023-04-13T00:06:16.142Z,13.27
2023-04-13T00:08:45.355Z,12.85
2023-04-13T00:11:13.757Z,11.90
2023-04-13T00:13:43.169Z,12.07
2023-04-13T00:16:12.642Z,11.02
2023-04-13T00:18:40.640Z,12.40
2023-04-13T00:21:08.835Z,11.65
2023-04-13T00:23:36.864Z,12.25
2023-04-13T00:26:04.786Z,12.20
2023-04-13T00:28:33.335Z,12.02
2023-04-13T00:31:01.380Z,11.30
2023-04-13T00:33:29.368Z,11.40
2023-04-13T00:35:59.540Z,11.80
2023-04-13T00:38:29.974Z,11.40
2023-04-13T00:40:57.888Z,12.65
2023-04-13T00:43:26.356Z,12.30
2023-04-13T00:45:55.263Z,12.15
2023-04-13T00:48:25.601Z,11.48
2023-04-13T00:50:53.545Z,12.25
2023-04-13T00:53:21.536Z,11.13
2023-04-13T00:55:49.701Z,11.82
2023-04-13T00:58:17.709Z,11.95
2023-04-13T01:00:45.560Z,11.50
2023-04-13T01:03:13.759Z,11.90
2023-04-13T01:05:56.183Z,12.18
2023-04-13T01:08:37.041Z,12.30
2023-04-13T01:11:07.130Z,12.07
2023-04-13T01:13:40.477Z,11.90
2023-04-13T01:18:40.245Z,11.35
2023-04-13T01:21:13.221Z,11.32
2023-04-13T01:23:52.848Z,10.97
2023-04-13T01:26:22.811Z,11.65
2023-04-13T01:28:51.517Z,12.23
2023-04-13T01:31:21.270Z,10.88
2023-04-13T01:33:50.115Z,11.10
2023-04-13T01:36:18.704Z,11.07
2023-04-13T01:38:46.868Z,11.07
2023-04-13T01:41:16.245Z,9.82
2023-04-13T01:43:46.990Z,11.02
2023-04-13T01:46:19.644Z,11.00
2023-04-13T01:48:55.846Z,10.77
2023-04-13T01:51:45.436Z,9.80
2023-04-13T01:54:23.508Z,10.57
2023-04-13T01:56:52.062Z,10.15
2023-04-13T01:59:22.646Z,10.95
2023-04-13T02:01:50.900Z,11.75
2023-04-13T02:04:19.148Z,9.88
2023-04-13T02:06:48.502Z,11.13
2023-04-13T02:09:17.221Z,10.38
2023-04-13T02:11:48.491Z,10.80
2023-04-13T02:14:18.722Z,11.18
2023-04-13T02:16:47.781Z,10.30
2023-04-13T02:19:16.738Z,11.10
2023-04-13T02:21:44.959Z,10.80
2023-04-13T02:24:12.813Z,10.98
2023-04-13T02:26:40.862Z,10.35
2023-04-13T02:29:09.140Z,10.75
2023-04-13T02:31:43.566Z,10.35
2023-04-13T02:34:11.772Z,10.98
2023-04-13T02:36:40.937Z,10.25
2023-04-13T02:39:10.869Z,11.32
2023-04-13T02:41:43.102Z,11.02
2023-04-13T02:44:15.934Z,9.88
2023-04-13T02:46:50.968Z,10.80
2023-04-13T02:49:18.922Z,10.80
2023-04-13T02:52:13.193Z,10.77
2023-04-13T02:55:01.780Z,10.38
2023-04-13T02:57:35.951Z,11.32
2023-04-13T03:00:10.560Z,10.50
2023-04-13T03:02:47.088Z,10.13
2023-04-13T03:05:17.594Z,10.30
2023-04-13T03:07:45.865Z,10.45
2023-04-13T03:10:14.176Z,10.77
2023-04-13T03:12:45.073Z,11.13
2023-04-13T03:15:14.849Z,10.77
2023-04-13T03:17:44.241Z,10.40
2023-04-13T03:20:20.712Z,9.73
2023-04-13T03:22:55.771Z,10.65
2023-04-13T03:25:24.295Z,10.10
2023-04-13T03:27:52.418Z,10.05
2023-04-13T03:30:23.072Z,10.10
2023-04-13T03:33:02.585Z,11.00
2023-04-13T03:35:34.867Z,10.82
2023-04-13T03:38:05.269Z,11.15
2023-04-13T03:40:43.292Z,10.52
2023-04-13T03:43:12.056Z,10.18
2023-04-13T03:45:45.738Z,10.60
2023-04-13T03:48:16.372Z,11.10
2023-04-13T03:50:44.321Z,10.02
2023-04-13T03:53:14.639Z,9.95
2023-04-13T03:55:45.806Z,10.52
2023-04-13T03:58:14.013Z,10.23
2023-04-13T04:00:42.288Z,10.48
2023-04-13T04:03:22.882Z,10.30
2023-04-13T04:06:04.117Z,10.57
2023-04-13T04:08:32.251Z,10.73
2023-04-13T04:11:04.635Z,9.63
2023-04-13T04:13:33.841Z,10.40
2023-04-13T04:16:09.014Z,9.98
2023-04-13T04:18:40.065Z,9.25
2023-04-13T04:21:11.936Z,11.00
2023-04-13T04:23:40.456Z,10.23
2023-04-13T04:26:08.308Z,9.60
2023-04-13T04:28:46.307Z,10.50
2023-04-13T04:31:19.339Z,11.32
2023-04-13T04:33:54.503Z,11.25
2023-04-13T04:36:24.264Z,10.73
2023-04-13T04:39:02.721Z,10.25
2023-04-13T04:41:37.787Z,11.25
2023-04-13T04:44:07.944Z,10.93
2023-04-13T04:46:41.921Z,8.35
2023-04-13T04:49:14.096Z,11.95
2023-04-13T04:51:42.553Z,11.13
2023-04-13T04:54:14.200Z,11.90
2023-04-13T04:56:42.198Z,11.02
2023-04-13T04:59:10.601Z,12.77
2023-04-13T05:01:50.000Z,13.02
2023-04-13T05:04:18.284Z,12.98
2023-04-13T05:06:46.903Z,12.80
2023-04-13T05:09:20.273Z,13.63
2023-04-13T05:11:52.584Z,14.00
2023-04-13T05:14:22.351Z,19.90
2023-04-13T05:17:00.828Z,13.82
2023-04-13T05:19:37.179Z,13.00
2023-04-13T05:22:29.554Z,12.40
2023-04-13T05:25:19.310Z,13.63
2023-04-13T05:27:49.863Z,13.85
2023-04-13T05:30:18.728Z,13.75
2023-04-13T05:32:46.931Z,13.40
2023-04-13T05:35:14.841Z,14.35
2023-04-13T05:37:44.677Z,13.23
2023-04-13T05:40:19.098Z,13.25
2023-04-13T05:42:48.021Z,14.40
2023-04-13T05:45:21.717Z,14.13
2023-04-13T05:48:01.717Z,12.93
2023-04-13T05:50:30.064Z,19.30
2023-04-13T05:52:58.166Z,31.13
2023-04-13T05:55:28.216Z,15.57
2023-04-13T05:58:04.849Z,14.88
2023-04-13T06:00:32.860Z,13.85
2023-04-13T06:05:35.607Z,13.13
2023-04-13T06:08:03.968Z,12.80
2023-04-13T06:10:31.986Z,13.57
2023-04-13T06:12:59.959Z,14.40
2023-04-13T06:15:28.049Z,13.27
2023-04-13T06:17:56.160Z,14.02
2023-04-13T06:20:24.739Z,14.00
2023-04-13T06:22:52.708Z,13.60
2023-04-13T06:25:22.833Z,13.30
2023-04-13T06:27:50.806Z,13.82
2023-04-13T06:30:20.052Z,13.05
2023-04-13T06:32:52.033Z,13.23
2023-04-13T06:35:23.413Z,13.73
2023-04-13T06:37:52.005Z,13.68
2023-04-13T06:40:28.992Z,13.27
2023-04-13T06:43:06.213Z,13.30
2023-04-13T06:45:58.697Z,12.52
2023-04-13T06:48:29.305Z,13.82
2023-04-13T06:51:00.130Z,13.20
2023-04-13T06:53:30.024Z,13.20
2023-04-13T06:55:57.896Z,13.23
2023-04-13T06:58:26.070Z,12.73
2023-04-13T07:00:53.941Z,13.23
2023-04-13T07:03:22.519Z,13.75
2023-04-13T07:05:50.840Z,14.13
2023-04-13T07:08:19.542Z,13.68
2023-04-13T07:10:53.216Z,13.98
2023-04-13T07:13:29.904Z,14.43
2023-04-13T07:15:58.156Z,13.52
2023-04-13T07:18:26.411Z,14.20
2023-04-13T07:20:55.997Z,12.23
2023-04-13T07:23:28.436Z,12.15
2023-04-13T07:25:56.649Z,12.98
2023-04-13T07:28:28.769Z,12.50
2023-04-13T07:30:59.063Z,12.82
2023-04-13T07:33:27.196Z,12.07
2023-04-13T07:35:56.108Z,11.95
2023-04-13T07:38:27.733Z,11.40
2023-04-13T07:40:57.188Z,12.32
2023-04-13T07:43:28.096Z,12.30
2023-04-13T07:45:58.944Z,11.80
2023-04-13T07:48:27.296Z,11.02
2023-04-13T07:50:56.701Z,11.57
2023-04-13T07:53:24.853Z,11.00
2023-04-13T07:55:53.775Z,10.88
2023-04-13T07:58:22.374Z,11.65
2023-04-13T08:00:52.412Z,9.90
2023-04-13T08:03:20.482Z,10.50
2023-04-13T08:05:52.114Z,10.48
2023-04-13T08:08:20.191Z,10.57
2023-04-13T08:10:48.110Z,10.93
2023-04-13T08:13:17.538Z,10.35
2023-04-13T08:15:46.004Z,11.88
2023-04-13T08:18:13.886Z,11.30
2023-04-13T08:20:42.340Z,11.07
2023-04-13T08:23:12.477Z,10.98
2023-04-13T08:25:42.000Z,10.90
2023-04-13T08:28:10.161Z,10.73
2023-04-13T08:30:38.197Z,11.23
2023-04-13T08:33:06.180Z,10.80
2023-04-13T08:35:36.209Z,11.82
2023-04-13T08:38:10.889Z,10.73
2023-04-13T08:40:43.942Z,11.10
2023-04-13T08:43:17.693Z,8.63
2023-04-13T08:45:46.200Z,11.63
2023-04-13T08:48:15.853Z,19.90
2023-04-13T08:50:45.694Z,23.13
2023-04-13T08:53:17.129Z,18.88
2023-04-13T08:55:46.324Z,12.30
2023-04-13T08:58:14.898Z,12.75
2023-04-13T09:00:44.401Z,12.93
2023-04-13T09:03:14.761Z,13.02
2023-04-13T09:05:50.168Z,11.82
2023-04-13T09:08:18.391Z,12.18
2023-04-13T09:10:48.476Z,12.00
2023-04-13T09:13:16.799Z,10.95
2023-04-13T09:15:47.474Z,12.30
2023-04-13T09:18:28.520Z,11.52
2023-04-13T09:21:05.571Z,11.43
2023-04-13T09:23:33.581Z,10.68
2023-04-13T09:26:10.833Z,10.25
2023-04-13T09:28:53.275Z,10.85
2023-04-13T09:31:23.209Z,10.98
2023-04-13T09:33:52.603Z,10.80
2023-04-13T09:36:21.784Z,11.88
2023-04-13T09:38:53.817Z,11.05
2023-04-13T09:41:35.166Z,11.65
2023-04-13T09:44:03.861Z,11.68
2023-04-13T09:46:32.029Z,11.57
2023-04-13T09:49:01.785Z,11.48
2023-04-13T09:51:37.085Z,12.10
2023-04-13T09:54:09.051Z,11.43
2023-04-13T09:56:43.764Z,10.27
2023-04-13T09:59:12.968Z,11.23
2023-04-13T10:01:42.223Z,10.80
2023-04-13T10:04:10.935Z,10.50
2023-04-13T10:06:46.957Z,11.05
2023-04-13T10:09:15.470Z,10.10
2023-04-13T10:11:46.884Z,10.68
2023-04-13T10:14:35.041Z,9.60
2023-04-13T10:17:22.921Z,10.27
2023-04-13T10:19:52.926Z,9.35
2023-04-13T10:22:24.249Z,8.20
2023-04-13T10:24:53.195Z,7.72
2023-04-13T10:27:22.215Z,8.80
2023-04-13T10:29:50.433Z,6.55
2023-04-13T10:32:25.853Z,6.25
2023-04-13T10:34:54.746Z,6.07
2023-04-13T10:37:24.674Z,5.43
2023-04-13T10:40:10.760Z,4.75
2023-04-13T10:42:51.735Z,5.22
2023-04-13T10:45:26.312Z,4.13
2023-04-13T10:47:55.658Z,4.88
2023-04-13T10:50:27.600Z,3.83
2023-04-13T10:53:05.815Z,5.95
2023-04-13T10:55:35.042Z,3.83
2023-04-13T10:58:03.412Z,2.78
2023-04-13T11:00:45.738Z,3.10
2023-04-13T11:05:44.934Z,3.10
2023-04-13T11:08:20.858Z,2.67
2023-04-13T11:10:53.001Z,2.50
2023-04-13T11:13:22.473Z,2.65
2023-04-13T11:15:50.863Z,2.78
2023-04-13T11:18:26.616Z,2.40
2023-04-13T11:20:55.196Z,3.10
2023-04-13T11:23:24.455Z,2.75
2023-04-13T11:26:02.876Z,2.83
2023-04-13T11:28:39.096Z,3.03
2023-04-13T11:31:07.758Z,3.10
2023-04-13T11:33:37.896Z,3.00
2023-04-13T11:36:07.968Z,3.17
2023-04-13T11:38:36.056Z,3.13
2023-04-13T11:41:15.748Z,3.22
2023-04-13T11:43:48.955Z,3.47
2023-04-13T11:46:34.736Z,3.42
2023-04-13T11:49:05.473Z,3.67
2023-04-13T11:51:33.877Z,4.32
2023-04-13T11:54:02.599Z,4.20
2023-04-13T11:56:33.604Z,3.60
2023-04-13T11:59:01.869Z,3.78
2023-04-13T12:01:34.209Z,3.58
2023-04-13T12:04:15.851Z,3.33
2023-04-13T12:06:47.586Z,4.22
2023-04-13T12:09:17.642Z,7.32
2023-04-13T12:12:08.107Z,3.13
2023-04-13T12:20:07.793Z,4.32
2023-04-13T12:22:51.726Z,4.03
2023-04-13T12:25:24.436Z,11.95
2023-04-13T12:27:54.087Z,5.15
2023-04-13T12:30:22.677Z,5.78
2023-04-13T12:32:56.924Z,6.05
2023-04-13T12:35:27.347Z,4.18
2023-04-13T12:37:55.608Z,3.45
2023-04-13T12:40:23.553Z,3.33
2023-04-13T12:42:51.694Z,3.15
2023-04-13T12:45:19.487Z,2.42
2023-04-13T12:47:47.623Z,2.70
2023-04-13T12:50:15.507Z,2.78
2023-04-13T12:52:44.564Z,3.10
2023-04-13T12:55:12.673Z,2.75
2023-04-13T12:57:40.767Z,2.55
2023-04-13T13:00:11.311Z,2.67
2023-04-13T13:02:39.494Z,2.53
2023-04-13T13:05:09.460Z,2.58
2023-04-13T13:07:37.406Z,2.47
2023-04-13T13:10:14.988Z,2.08
2023-04-13T13:12:53.861Z,2.05
2023-04-13T13:15:21.844Z,2.00
2023-04-13T13:17:49.839Z,1.33
2023-04-13T13:20:18.052Z,1.05
2023-04-13T13:22:45.946Z,1.00
2023-04-13T13:25:16.122Z,1.02
2023-04-13T13:30:15.452Z,0.77
2023-04-13T13:32:43.425Z,0.43
2023-04-13T13:35:11.843Z,0.70
2023-04-13T13:37:39.875Z,0.40
2023-04-13T13:40:13.382Z,2.08
2023-04-13T13:45:12.966Z,1.88
2023-04-13T13:47:40.945Z,2.13
2023-04-13T13:50:09.923Z,1.63
2023-04-13T13:52:51.858Z,1.58
2023-04-13T13:55:28.168Z,1.65
2023-04-13T13:57:56.090Z,1.60
2023-04-13T14:00:24.014Z,1.85
2023-04-13T14:02:54.674Z,1.40
2023-04-13T14:05:32.469Z,1.40
2023-04-13T14:08:01.908Z,1.10
2023-04-13T14:10:29.950Z,0.90
2023-04-13T14:13:00.112Z,0.98
2023-04-13T14:15:28.222Z,0.95
2023-04-13T14:20:31.207Z,0.88
2023-04-13T14:22:59.204Z,1.30
2023-04-13T14:25:27.027Z,0.63
2023-04-13T14:27:55.071Z,0.60
2023-04-13T14:30:24.943Z,0.60
2023-04-13T14:32:54.191Z,0.80
2023-04-13T14:35:22.503Z,1.05
2023-04-13T14:37:50.372Z,0.70
2023-04-13T14:40:22.005Z,0.93
2023-04-13T14:42:52.954Z,0.80
2023-04-13T14:45:21.742Z,0.77
2023-04-13T14:47:50.148Z,0.57
2023-04-13T14:50:18.407Z,0.70
2023-04-13T14:52:50.301Z,0.60
2023-04-13T14:55:18.712Z,0.70
2023-04-13T14:57:47.295Z,0.63
2023-04-13T15:00:22.585Z,0.70
2023-04-13T15:02:52.753Z,0.73
2023-04-13T15:05:21.613Z,0.75
2023-04-13T15:07:51.021Z,0.85
2023-04-13T15:10:19.639Z,0.80
2023-04-13T15:12:48.409Z,0.63
2023-04-13T15:15:16.600Z,0.73
2023-04-13T15:17:44.578Z,0.60
2023-04-13T15:20:12.452Z,0.60
2023-04-13T15:22:40.430Z,0.68
2023-04-13T15:25:08.477Z,0.90
2023-04-13T15:27:36.406Z,0.60
2023-04-13T15:30:04.458Z,0.60
2023-04-13T15:32:34.985Z,0.47
2023-04-13T15:35:03.326Z,0.77
2023-04-13T15:37:31.533Z,0.80
2023-04-13T15:39:59.546Z,0.80
2023-04-13T15:42:27.415Z,0.50
2023-04-13T15:44:55.474Z,0.70
2023-04-13T15:47:23.364Z,0.65
2023-04-13T15:49:51.396Z,0.60
2023-04-13T15:52:19.289Z,0.50
2023-04-13T15:54:47.789Z,0.70
2023-04-13T15:57:17.077Z,0.60
2023-04-13T15:59:45.142Z,0.77
2023-04-13T16:02:13.448Z,0.82
2023-04-13T16:04:41.711Z,0.68
2023-04-13T16:07:14.215Z,0.70
2023-04-13T16:09:45.473Z,0.73
2023-04-13T16:12:13.384Z,0.90
2023-04-13T16:14:45.525Z,1.00
2023-04-13T16:17:15.152Z,0.90
2023-04-13T16:19:47.066Z,0.98
2023-04-13T16:22:16.662Z,1.10
2023-04-13T16:24:44.537Z,1.00
2023-04-13T16:27:12.505Z,1.05
2023-04-13T16:29:41.772Z,1.23
2023-04-13T16:32:09.725Z,1.20
2023-04-13T16:34:37.649Z,1.13
2023-04-13T16:37:05.562Z,1.13
2023-04-13T16:39:33.471Z,1.05
2023-04-13T16:42:01.596Z,1.13
2023-04-13T16:44:29.474Z,1.42
2023-04-13T16:46:57.513Z,1.15
2023-04-13T16:49:25.508Z,1.10
2023-04-13T16:51:53.361Z,1.10
2023-04-13T16:54:21.455Z,1.55
2023-04-13T16:56:49.371Z,1.10
2023-04-13T16:59:17.418Z,1.33
2023-04-13T17:01:45.980Z,1.30
2023-04-13T17:04:14.209Z,1.30
2023-04-13T17:06:42.388Z,1.40
2023-04-13T17:09:10.197Z,1.40
2023-04-13T17:11:38.102Z,1.67
2023-04-13T17:14:06.282Z,1.63
2023-04-13T17:16:34.291Z,1.70
2023-04-13T17:19:03.254Z,1.40
2023-04-13T17:21:31.404Z,1.70
2023-04-13T17:23:59.365Z,1.55
2023-04-13T17:26:27.539Z,2.78
2023-04-13T17:28:56.555Z,1.52
2023-04-13T17:31:24.531Z,1.30
2023-04-13T17:33:52.531Z,1.60
2023-04-13T17:36:22.905Z,1.70
2023-04-13T17:38:51.818Z,1.50
2023-04-13T17:41:19.619Z,1.60
2023-04-13T17:43:47.679Z,0.90
2023-04-13T17:46:15.979Z,2.03
2023-04-13T17:48:44.219Z,4.18
2023-04-13T17:51:12.152Z,2.17
2023-04-13T17:53:41.187Z,1.20
2023-04-13T17:56:14.524Z,1.10
2023-04-13T18:01:10.572Z,1.33
2023-04-13T18:03:38.928Z,1.50
2023-04-13T18:06:07.154Z,1.88
2023-04-13T18:08:36.313Z,2.10
2023-04-13T18:11:04.243Z,1.08
2023-04-13T18:13:32.418Z,1.67
2023-04-13T18:16:33.839Z,1.40
2023-04-13T18:19:11.949Z,1.25
2023-04-13T18:21:39.909Z,0.90
2023-04-13T18:24:07.955Z,0.82
2023-04-13T18:26:36.079Z,1.15
2023-04-13T18:29:04.057Z,1.30
2023-04-13T18:31:32.430Z,1.33
2023-04-13T18:34:00.709Z,1.10
2023-04-13T18:36:28.880Z,1.13
2023-04-13T18:38:56.945Z,1.90
2023-04-13T18:41:24.867Z,1.60
2023-04-13T18:43:52.796Z,1.58
2023-04-13T18:46:20.805Z,1.45
2023-04-13T18:48:48.835Z,5.68
2023-04-13T18:51:16.729Z,11.45
2023-04-13T18:53:45.792Z,3.03
2023-04-13T18:56:13.702Z,1.98
2023-04-13T18:58:41.641Z,1.50
2023-04-13T19:01:19.033Z,2.28
2023-04-13T19:03:47.305Z,1.67
2023-04-13T19:06:16.527Z,1.80
2023-04-13T19:08:44.595Z,2.00
2023-04-13T19:11:13.898Z,2.00
2023-04-13T19:13:42.036Z,1.85
2023-04-13T19:16:09.945Z,2.20
2023-04-13T19:18:37.968Z,1.60
2023-04-13T19:21:06.943Z,2.00
2023-04-13T19:23:40.172Z,3.30
2023-04-13T19:26:08.587Z,1.70
2023-04-13T19:28:36.627Z,16.48
2023-04-13T19:31:04.599Z,7.30
2023-04-13T19:33:33.594Z,1.50
2023-04-13T19:36:05.918Z,1.38
2023-04-13T19:38:33.828Z,1.85
2023-04-13T19:41:01.937Z,1.75
2023-04-13T19:43:29.868Z,2.92
2023-04-13T19:45:57.970Z,1.60
2023-04-13T19:48:27.880Z,1.50
2023-04-13T19:50:56.064Z,2.15
2023-04-13T19:53:23.956Z,2.13
2023-04-13T19:55:52.291Z,2.38
2023-04-13T19:58:20.157Z,2.70
2023-04-13T20:00:49.905Z,11.98
2023-04-13T20:03:20.665Z,3.83
2023-04-13T20:05:49.099Z,2.20
2023-04-13T20:08:17.114Z,2.70
2023-04-13T20:10:45.460Z,2.00
2023-04-13T20:13:13.371Z,1.20
2023-04-13T20:15:41.318Z,1.63
2023-04-13T20:18:09.267Z,1.00
2023-04-13T20:20:38.641Z,1.10
2023-04-13T20:23:08.056Z,6.18
2023-04-13T20:25:37.488Z,4.63
2023-04-13T20:28:10.312Z,1.50
2023-04-13T20:30:39.341Z,1.45
2023-04-13T20:33:07.484Z,1.90
2023-04-13T20:35:35.512Z,2.25
2023-04-13T20:38:04.911Z,2.92
2023-04-13T20:40:36.193Z,3.38
2023-04-13T20:43:06.343Z,2.33
2023-04-13T20:45:36.340Z,1.90
2023-04-13T20:50:35.875Z,2.40
2023-04-13T20:53:04.918Z,4.50
2023-04-13T20:55:33.362Z,4.00
2023-04-13T20:58:02.430Z,2.75
2023-04-13T21:00:30.689Z,2.92
2023-04-13T21:02:58.773Z,2.83
2023-04-13T21:05:26.796Z,2.90
2023-04-13T21:07:56.897Z,2.67
2023-04-13T21:10:25.078Z,2.53
2023-04-13T21:12:53.033Z,45.30
2023-04-13T21:15:21.482Z,9.35
2023-04-13T21:17:49.446Z,6.45
2023-04-13T21:20:17.291Z,3.08
2023-04-13T21:22:45.455Z,2.80
2023-04-13T21:25:13.675Z,2.75
2023-04-13T21:27:41.665Z,2.10
2023-04-13T21:30:09.759Z,2.90
2023-04-13T21:32:37.869Z,2.72
2023-04-13T21:35:06.316Z,2.95
2023-04-13T21:37:34.186Z,2.78
2023-04-13T21:40:02.264Z,2.50
2023-04-13T21:42:30.754Z,2.95
2023-04-13T21:44:58.784Z,2.53
2023-04-13T21:47:26.962Z,2.45
2023-04-13T21:49:55.104Z,3.03
2023-04-13T21:52:23.185Z,3.20
2023-04-13T21:54:51.800Z,2.90
2023-04-13T21:57:19.989Z,2.63
2023-04-13T21:59:47.859Z,2.97
2023-04-13T22:02:16.005Z,2.95
2023-04-13T22:04:43.931Z,2.85
2023-04-13T22:07:12.266Z,3.40
2023-04-13T22:09:40.308Z,3.05
2023-04-13T22:12:10.810Z,3.58
2023-04-13T22:14:38.682Z,3.17
2023-04-13T22:17:06.777Z,3.42
2023-04-13T22:19:34.579Z,3.28
2023-04-13T22:22:02.566Z,3.30
2023-04-13T22:24:30.566Z,3.10
2023-04-13T22:26:58.579Z,3.70
2023-04-13T22:29:26.427Z,3.83
2023-04-13T22:31:54.857Z,3.45
2023-04-13T22:34:22.781Z,3.97
2023-04-13T22:36:50.694Z,4.03
2023-04-13T22:39:18.734Z,3.05
2023-04-13T22:41:46.557Z,3.05
2023-04-13T22:44:14.441Z,3.42
2023-04-13T22:46:42.390Z,3.17
2023-04-13T22:49:10.434Z,3.17
2023-04-13T22:51:39.274Z,3.30
2023-04-13T22:54:07.252Z,3.45
2023-04-13T22:56:35.110Z,3.20
2023-04-13T22:59:03.253Z,3.40
2023-04-13T23:01:31.506Z,3.15
2023-04-13T23:03:59.694Z,3.90
2023-04-13T23:06:27.891Z,3.78
2023-04-13T23:08:59.137Z,3.58
2023-04-13T23:11:27.471Z,3.55
2023-04-13T23:13:55.516Z,4.15
2023-04-13T23:16:23.449Z,3.45
2023-04-13T23:18:51.423Z,3.08
2023-04-13T23:21:19.288Z,3.25
2023-04-13T23:23:47.370Z,3.05
2023-04-13T23:26:15.542Z,2.97
2023-04-13T23:28:44.454Z,2.70
2023-04-13T23:31:12.448Z,2.80
2023-04-13T23:33:40.555Z,3.00
2023-04-13T23:36:08.552Z,3.50
2023-04-13T23:38:36.746Z,3.05
2023-04-13T23:41:04.776Z,3.35
2023-04-13T23:43:32.619Z,3.40
2023-04-13T23:46:00.637Z,3.20
2023-04-13T23:48:28.594Z,3.00
2023-04-13T23:50:57.380Z,3.03
2023-04-13T23:53:25.501Z,2.63
2023-04-13T23:55:53.355Z,3.13
2023-04-13T23:58:21.433Z,3.17
